Time;durP1;ratioP1;P1;durP2;ratioP2;P2;SDS_P1;SDS_P2;PMS_P1;PMS_P2;Temp;Humidity;BMP_temperature;BMP_pressure;BME280_temperature;BME280_humidity;BME280_pressure;Samples;Min_cycle;Max_cycle;Signal;HPM_P1;HPM_P2
2022/01/18 00:04:27;;;;;;;56.72;6.70;;;;;;;6.40;100.00;103710.66;10463537;28;20049;-57
2022/01/18 00:09:29;;;;;;;32.50;6.13;;;;;;;6.56;100.00;103712.50;10463343;28;20049;-57
2022/01/18 00:14:44;;;;;;;48.28;7.78;;;;;;;6.44;100.00;103723.72;10463064;28;20049;-57
2022/01/18 00:19:54;;;;;;;38.25;6.50;;;;;;;6.43;100.00;103708.09;10462623;28;20139;-56
2022/01/18 00:24:59;;;;;;;29.92;6.70;;;;;;;6.57;100.00;103716.84;10462772;28;20045;-58
2022/01/18 00:30:28;;;;;;;45.35;8.70;;;;;;;6.57;100.00;103718.59;10462662;28;20041;-56
2022/01/18 00:35:33;;;;;;;47.67;8.27;;;;;;;6.43;100.00;103714.16;10462275;28;20049;-55
2022/01/18 00:40:36;;;;;;;34.17;6.70;;;;;;;6.32;100.00;103711.50;10462799;28;20055;-57
2022/01/18 00:45:38;;;;;;;42.30;8.23;;;;;;;6.51;100.00;103722.88;10462911;28;20056;-57
2022/01/18 00:50:41;;;;;;;42.90;7.88;;;;;;;6.31;100.00;103719.28;10461568;28;20056;-58
2022/01/18 00:56:00;;;;;;;30.88;6.65;;;;;;;6.55;100.00;103726.38;10461615;28;20444;-54
2022/01/18 01:01:03;;;;;;;53.45;8.13;;;;;;;6.43;100.00;103727.16;10460131;28;20052;-54
2022/01/18 01:06:06;;;;;;;38.35;6.18;;;;;;;6.60;100.00;103722.06;10461157;28;20132;-56
2022/01/18 01:11:10;;;;;;;50.38;7.38;;;;;;;6.53;100.00;103724.66;10460708;28;20053;-56
2022/01/18 01:16:43;;;;;;;41.72;6.82;;;;;;;6.45;100.00;103719.38;10460993;28;20507;-55
2022/01/18 01:43:14;;;;;;;58.63;9.98;;;;;;;6.51;100.00;103717.69;10460035;28;20053;-57
2022/01/18 01:48:18;;;;;;;46.60;8.35;;;;;;;6.69;100.00;103723.84;10457755;28;20077;-58
2022/01/18 01:53:22;;;;;;;69.20;11.60;;;;;;;6.42;100.00;103714.16;10458977;28;20049;-53
2022/01/18 01:58:26;;;;;;;68.85;11.20;;;;;;;6.56;100.00;103722.06;10458616;28;20056;-57
2022/01/18 02:03:28;;;;;;;56.67;10.63;;;;;;;6.47;100.00;103717.66;10460277;28;20065;-57
2022/01/18 02:08:31;;;;;;;50.78;11.50;;;;;;;6.67;100.00;103720.38;10457536;28;20049;-58
2022/01/18 02:13:34;;;;;;;58.83;10.73;;;;;;;6.51;100.00;103717.69;10458119;28;20060;-56
2022/01/18 02:23:58;;;;;;;47.13;10.32;;;;;;;6.52;100.00;103718.53;10458160;28;20045;-58
2022/01/18 02:29:01;;;;;;;63.72;12.38;;;;;;;6.37;100.00;103715.84;10458915;28;20049;-56
2022/01/18 02:34:14;;;;;;;73.38;14.23;;;;;;;6.43;100.00;103716.75;10458432;28;20053;-58
2022/01/18 02:39:21;;;;;;;51.35;10.95;;;;;;;6.55;100.00;103715.09;10457294;28;20055;-57
2022/01/18 02:44:25;;;;;;;52.40;13.15;;;;;;;6.47;100.00;103723.75;10458798;28;20394;-56
2022/01/18 02:49:28;;;;;;;61.00;11.57;;;;;;;6.42;100.00;103733.25;10456046;28;20049;-57
2022/01/18 02:54:30;;;;;;;53.53;12.55;;;;;;;6.12;100.00;103728.69;10456898;28;20048;-56
2022/01/18 02:59:50;;;;;;;44.72;11.77;;;;;;;6.32;100.00;103724.50;10456792;28;20060;-58
2022/01/18 03:04:52;;;;;;;49.22;10.45;;;;;;;6.55;100.00;103712.50;10457772;28;20063;-57
2022/01/18 03:09:55;;;;;;;42.28;10.35;;;;;;;6.42;100.00;103715.03;10456302;28;20127;-59
2022/01/18 03:14:57;;;;;;;50.03;12.07;;;;;;;6.27;100.00;103723.59;10456618;28;20049;-58
2022/01/18 03:19:59;;;;;;;70.43;16.08;;;;;;;6.36;100.00;103719.34;10455255;28;20060;-53
2022/01/18 03:25:14;;;;;;;66.75;14.35;;;;;;;6.28;100.00;103729.66;10462475;28;20080;-57
2022/01/18 03:30:16;;;;;;;54.85;13.65;;;;;;;6.20;100.00;103741.75;10464635;28;20507;-57
2022/01/18 03:35:21;;;;;;;67.25;16.70;;;;;;;6.12;100.00;103742.56;10463917;28;20071;-58
2022/01/18 03:40:24;;;;;;;60.20;16.45;;;;;;;5.96;100.00;103735.47;10464529;28;20061;-57
2022/01/18 03:45:32;;;;;;;57.60;19.38;;;;;;;5.81;100.00;103738.75;10464071;28;20108;-55
2022/01/18 03:50:34;;;;;;;72.32;20.33;;;;;;;5.89;100.00;103738.84;10464024;28;20354;-59
2022/01/18 03:55:37;;;;;;;57.33;15.40;;;;;;;6.17;100.00;103741.72;10463145;28;20052;-58
2022/01/18 04:00:39;;;;;;;54.63;16.88;;;;;;;6.28;100.00;103737.47;10464297;28;20061;-53
2022/01/18 04:05:42;;;;;;;61.88;18.52;;;;;;;6.31;100.00;103745.31;10465316;28;20049;-54
2022/01/18 04:10:45;;;;;;;50.03;16.85;;;;;;;6.17;100.00;103757.31;10463541;28;20056;-59
2022/01/18 04:15:47;;;;;;;61.78;17.63;;;;;;;6.15;100.00;103754.72;10462956;28;20401;-58
2022/01/18 04:31:29;;;;;;;53.38;15.65;;;;;;;6.19;100.00;103753.88;10462304;28;20060;-59
2022/01/18 04:36:31;;;;;;;56.08;18.95;;;;;;;6.21;100.00;103759.09;10463125;28;20048;-57
2022/01/18 04:41:35;;;;;;;70.50;21.70;;;;;;;6.00;100.00;103760.66;10462088;28;20114;-57
2022/01/18 04:51:58;;;;;;;43.17;16.33;;;;;;;5.87;100.00;103759.63;10461712;28;20045;-57
2022/01/18 05:02:05;;;;;;;72.28;23.50;;;;;;;5.72;100.00;103767.28;10461601;28;20048;-59
2022/01/18 05:07:11;;;;;;;78.90;22.10;;;;;;;5.93;100.00;103769.22;10460868;28;20489;-56
2022/01/18 05:12:21;;;;;;;69.00;24.08;;;;;;;6.00;100.00;103777.97;10460755;28;20507;-55
2022/01/18 05:23:01;;;;;;;58.40;21.92;;;;;;;5.99;100.00;103776.25;10410344;28;20053;-57
2022/01/18 05:28:06;;;;;;;73.82;24.65;;;;;;;6.07;100.00;103766.78;10460974;28;20045;-54
2022/01/18 05:33:09;;;;;;;51.65;21.60;;;;;;;5.97;100.00;103758.03;10460260;28;20083;-53
2022/01/18 05:38:11;;;;;;;54.20;20.83;;;;;;;6.05;100.00;103756.38;10459821;28;20049;-55
2022/01/18 05:43:14;;;;;;;57.97;19.88;;;;;;;5.87;100.00;103756.19;10460226;28;20052;-56
2022/01/18 05:48:16;;;;;;;77.13;23.92;;;;;;;5.80;100.00;103752.63;10458759;28;20082;-59
2022/01/18 05:53:18;;;;;;;94.50;27.10;;;;;;;5.81;100.00;103749.16;10459029;28;20394;-55
2022/01/18 05:58:21;;;;;;;89.05;27.70;;;;;;;5.76;100.00;103761.25;10458607;28;20053;-59
2022/01/18 06:06:49;;;;;;;85.43;26.33;;;;;;;5.69;100.00;103772.44;10459664;28;20049;-54
2022/01/18 06:08:52;;;;;;;76.28;23.27;;;;;;;5.76;100.00;103761.25;10453267;28;20075;-57
2022/01/18 06:13:55;;;;;;;69.68;22.33;;;;;;;5.98;100.00;103769.31;10459162;28;20048;-55
2022/01/18 06:18:57;;;;;;;66.07;22.17;;;;;;;5.97;100.00;103771.03;10458655;28;20045;-57
2022/01/18 06:23:59;;;;;;;68.00;23.58;;;;;;;5.63;100.00;103773.25;10458067;28;20053;-56
2022/01/18 06:29:02;;;;;;;64.18;22.23;;;;;;;5.72;100.00;103772.50;10457646;28;20057;-56
2022/01/18 06:34:06;;;;;;;81.85;24.92;;;;;;;5.56;100.00;103777.53;10457369;28;20057;-56
2022/01/18 06:39:08;;;;;;;58.10;21.33;;;;;;;5.58;100.00;103785.31;10457130;28;20107;-58
2022/01/18 06:44:11;;;;;;;68.90;22.33;;;;;;;5.62;100.00;103776.72;10459093;28;20048;-59
2022/01/18 06:49:13;;;;;;;53.13;19.85;;;;;;;5.94;100.00;103773.56;10456882;28;20049;-57
2022/01/18 06:54:18;;;;;;;46.35;17.85;;;;;;;5.97;100.00;103776.25;10456862;28;20056;-56
2022/01/18 06:59:20;;;;;;;74.93;22.25;;;;;;;5.68;100.00;103781.09;10455952;28;20064;-58
2022/01/18 07:04:22;;;;;;;73.85;24.20;;;;;;;5.62;100.00;103791.44;10456900;28;20049;-60
2022/01/18 07:09:25;;;;;;;51.72;20.23;;;;;;;5.37;100.00;103784.22;10456702;28;20052;-59
2022/01/18 07:14:28;;;;;;;66.45;21.05;;;;;;;5.23;100.00;103793.56;10456659;28;20052;-59
2022/01/18 07:19:32;;;;;;;63.20;22.80;;;;;;;5.26;100.00;103803.13;10456472;28;20057;-59
2022/01/18 07:24:40;;;;;;;58.40;23.20;;;;;;;5.35;100.00;103805.84;10456867;28;20045;-57
2022/01/18 07:29:43;;;;;;;47.83;18.58;;;;;;;5.46;100.00;103798.16;10456102;28;20504;-56
2022/01/18 07:34:52;;;;;;;69.07;23.63;;;;;;;5.06;100.00;103811.53;10456182;28;20128;-59
2022/01/18 07:39:54;;;;;;;64.97;21.98;;;;;;;5.33;100.00;103817.91;10456248;28;20075;-59
2022/01/18 07:44:56;;;;;;;56.80;20.80;;;;;;;5.39;100.00;103805.88;10456035;28;20060;-59
2022/01/18 07:49:59;;;;;;;84.72;23.02;;;;;;;5.26;100.00;103813.50;10456193;28;20053;-58
2022/01/18 07:55:05;;;;;;;47.88;17.98;;;;;;;5.45;100.00;103815.50;10455534;28;20060;-57
2022/01/18 08:00:14;;;;;;;64.05;18.85;;;;;;;5.48;100.00;103814.66;10456147;28;20053;-59
2022/01/18 08:05:17;;;;;;;106.47;21.77;;;;;;;4.93;100.00;103828.66;10456212;28;20060;-55
2022/01/18 08:10:20;;;;;;;35.90;15.55;;;;;;;5.25;100.00;103825.63;10458949;28;20060;-59
2022/01/18 08:15:23;;;;;;;30.55;11.45;;;;;;;5.33;100.00;103829.22;10462848;28;20052;-59
2022/01/18 08:20:26;;;;;;;45.10;15.27;;;;;;;5.30;100.00;103826.56;10462708;28;20573;-60
2022/01/18 08:25:29;;;;;;;46.47;14.20;;;;;;;5.28;100.00;103830.88;10462970;28;20056;-58
2022/01/18 08:30:32;;;;;;;47.28;13.43;;;;;;;5.52;100.00;103829.44;10462459;28;20049;-59
2022/01/18 08:35:37;;;;;;;57.67;15.50;;;;;;;5.47;100.00;103813.78;10461534;28;20057;-59
2022/01/18 08:40:39;;;;;;;54.90;12.65;;;;;;;5.29;100.00;103822.22;10462381;28;20056;-58
2022/01/18 08:45:42;;;;;;;41.47;11.10;;;;;;;5.20;100.00;103829.91;10461800;28;20045;-58
2022/01/18 08:50:44;;;;;;;28.13;9.75;;;;;;;5.46;100.00;103824.16;10461920;28;20041;-57
2022/01/18 08:55:47;;;;;;;34.28;13.07;;;;;;;5.33;100.00;103833.50;10461289;28;20056;-57
2022/01/18 09:00:49;;;;;;;17.80;8.80;;;;;;;5.43;100.00;103818.91;10460186;28;20493;-57
2022/01/18 09:05:52;;;;;;;55.83;14.00;;;;;;;5.21;100.00;103835.13;10459509;28;20383;-56
2022/01/18 09:10:54;;;;;;;18.77;11.32;;;;;;;5.27;100.00;103834.31;10460964;28;20045;-58
2022/01/18 09:15:57;;;;;;;16.45;9.65;;;;;;;5.48;100.00;103840.63;10460836;28;20041;-58
2022/01/18 09:20:59;;;;;;;28.05;11.55;;;;;;;5.39;100.00;103837.06;10459577;28;20530;-59
2022/01/18 09:26:02;;;;;;;61.47;13.65;;;;;;;5.15;100.00;103834.16;10460261;28;20409;-58
2022/01/18 09:31:04;;;;;;;33.63;12.05;;;;;;;5.43;100.00;103844.91;10460087;28;20049;-57
2022/01/18 09:36:07;;;;;;;27.33;12.38;;;;;;;5.42;100.00;103848.38;10460491;28;20068;-57
2022/01/18 09:41:11;;;;;;;561.63;178.18;;;;;;;5.33;100.00;103859.50;10458965;28;20048;-58
2022/01/18 09:46:14;;;;;;;39.10;15.15;;;;;;;5.09;100.00;103860.88;10459392;28;20396;-60
2022/01/18 09:51:16;;;;;;;32.00;16.10;;;;;;;4.91;100.00;103860.63;10459358;28;20045;-58
2022/01/18 09:56:18;;;;;;;43.53;15.25;;;;;;;5.25;100.00;103867.19;10459176;28;20481;-56
2022/01/18 10:01:21;;;;;;;1999.90;999.90;;;;;;;5.34;100.00;103864.72;10458752;28;20053;-58
2022/01/18 10:06:24;;;;;;;1999.90;999.90;;;;;;;5.36;100.00;103873.44;10458460;28;20052;-59
2022/01/18 10:11:27;;;;;;;1999.90;999.90;;;;;;;5.24;100.00;103873.22;10457373;28;20059;-58
2022/01/18 10:16:31;;;;;;;86.63;37.38;;;;;;;5.20;100.00;103882.72;10457897;28;20064;-58
2022/01/18 10:21:45;;;;;;;28.08;13.48;;;;;;;5.19;100.00;103877.50;10458232;28;20055;-57
2022/01/18 10:26:50;;;;;;;36.00;18.85;;;;;;;5.37;100.00;103871.69;10458318;28;20425;-57
2022/01/18 10:37:05;;;;;;;42.35;16.17;;;;;;;5.64;100.00;103865.09;10458073;28;20072;-60
2022/01/18 10:42:23;;;;;;;50.88;15.80;;;;;;;5.55;100.00;103852.88;10457544;28;20064;-58
2022/01/18 10:47:27;;;;;;;25.52;13.23;;;;;;;5.89;100.00;103856.75;10457546;28;20049;-56
2022/01/18 10:52:29;;;;;;;29.17;14.07;;;;;;;6.06;100.00;103853.50;10458543;28;20049;-58
2022/01/18 10:57:38;;;;;;;27.50;15.10;;;;;;;6.01;100.00;103848.22;10457467;28;20045;-56
2022/01/18 11:02:42;;;;;;;36.45;15.20;;;;;;;5.65;100.00;103841.75;10456817;28;20409;-58
2022/01/18 11:07:47;;;;;;;25.60;13.80;;;;;;;6.09;100.00;103845.72;10456764;28;20103;-57
2022/01/18 11:13:44;;;;;;;25.85;13.70;;;;;;;6.29;100.00;103835.50;10456671;28;20056;-58
2022/01/18 11:18:30;;;;;;;34.05;14.55;;;;;;;6.13;100.00;103824.94;10450967;28;20052;-57
2022/01/18 11:23:34;;;;;;;29.00;14.93;;;;;;;6.20;100.00;103835.41;10456324;28;20140;-56
2022/01/18 11:28:37;;;;;;;30.83;14.60;;;;;;;6.28;100.00;103818.13;10457765;28;20051;-60
2022/01/18 11:33:45;;;;;;;23.52;13.55;;;;;;;6.25;100.00;103824.16;10455106;28;20057;-56
2022/01/18 11:38:54;;;;;;;26.13;13.77;;;;;;;6.51;100.00;103818.34;10454531;28;20053;-59
2022/01/18 11:43:59;;;;;;;29.98;14.80;;;;;;;6.27;100.00;103822.47;10457459;28;20053;-56
2022/01/18 11:49:24;;;;;;;26.52;13.85;;;;;;;6.73;100.00;103814.16;10464428;28;20135;-57
2022/01/18 11:54:55;;;;;;;30.35;14.00;;;;;;;6.88;100.00;103819.47;10462957;28;20049;-58
2022/01/18 12:00:04;;;;;;;26.00;13.25;;;;;;;6.69;100.00;103817.59;10464115;28;20045;-59
2022/01/18 12:05:14;;;;;;;24.33;13.38;;;;;;;6.75;100.00;103819.38;10463336;28;20408;-59
2022/01/18 12:10:38;;;;;;;20.83;10.93;;;;;;;7.09;100.00;103814.38;10464059;28;20076;-58
2022/01/18 12:15:49;;;;;;;32.25;13.65;;;;;;;6.74;100.00;103810.72;10463386;28;20041;-57
2022/01/18 12:20:57;;;;;;;29.60;13.38;;;;;;;6.53;100.00;103816.63;10461892;28;20147;-56
2022/01/18 12:36:43;;;;;;;28.92;12.27;;;;;;;6.72;100.00;103801.13;10462280;28;20083;-58
2022/01/18 12:41:52;;;;;;;26.90;12.90;;;;;;;7.11;100.00;103791.81;10462039;28;20053;-57
2022/01/18 12:46:57;;;;;;;24.40;12.27;;;;;;;7.05;100.00;103782.25;10462144;28;20049;-58
2022/01/18 12:52:00;;;;;;;24.75;11.75;;;;;;;7.23;100.00;103773.66;10462150;28;20056;-57
2022/01/18 12:57:26;;;;;;;23.27;13.73;;;;;;;7.18;100.00;103763.19;10460498;28;20052;-59
2022/01/18 13:02:29;;;;;;;32.08;13.40;;;;;;;7.00;100.00;103758.75;10454925;28;20063;-60
2022/01/18 13:07:31;;;;;;;26.33;12.30;;;;;;;7.20;100.00;103747.56;10461020;28;20060;-57
2022/01/18 13:12:36;;;;;;;26.17;12.43;;;;;;;7.49;100.00;103755.47;10461057;28;20045;-59
2022/01/18 13:23:04;;;;;;;29.23;14.82;;;;;;;8.11;100.00;103745.16;10461184;28;20056;-58
2022/01/18 13:28:07;;;;;;;27.20;13.18;;;;;;;8.24;100.00;103739.06;10461871;28;20044;-59
2022/01/18 13:33:11;;;;;;;29.98;15.02;;;;;;;8.26;100.00;103739.91;10443128;28;20045;-57
2022/01/18 13:38:14;;;;;;;26.52;13.48;;;;;;;8.14;100.00;103732.97;10459321;28;20072;-58
2022/01/18 13:43:19;;;;;;;32.38;14.18;;;;;;;7.39;100.00;103712.84;10459828;28;20060;-59
2022/01/18 13:48:33;;;;;;;28.42;14.60;;;;;;;7.27;100.00;103718.03;10460267;28;20045;-58
2022/01/18 13:53:36;;;;;;;31.45;14.73;;;;;;;7.37;100.00;103712.00;10459062;28;20393;-58
2022/01/18 13:58:47;;;;;;;33.60;15.70;;;;;;;7.12;100.00;103710.19;10459826;28;20140;-58
2022/01/18 14:03:51;;;;;;;39.23;15.67;;;;;;;6.81;100.00;103700.50;10459076;28;20470;-57
2022/01/18 14:08:55;;;;;;;34.22;16.05;;;;;;;6.75;100.00;103699.59;10430966;28;20045;-58
2022/01/18 14:14:24;;;;;;;33.55;16.10;;;;;;;7.37;100.00;103682.47;10417284;28;20458;-51
2022/01/18 14:19:27;;;;;;;33.90;16.80;;;;;;;6.73;100.00;103683.97;10439329;28;20049;-54
2022/01/18 14:24:43;;;;;;;1999.90;999.90;;;;;;;6.42;100.00;103668.19;10414987;28;20272;-55
2022/01/18 14:29:51;;;;;;;1999.90;999.90;;;;;;;6.35;100.00;103661.19;10414576;28;20046;-52
2022/01/18 14:35:00;;;;;;;1999.90;999.90;;;;;;;6.34;100.00;103659.47;10428302;28;20052;-53
2022/01/18 14:40:25;;;;;;;117.43;109.55;;;;;;;6.14;100.00;103665.41;10416354;28;20045;-58
2022/01/18 14:45:39;;;;;;;111.72;103.72;;;;;;;5.93;100.00;103650.47;10416941;28;20042;-56
2022/01/18 14:50:46;;;;;;;109.40;101.13;;;;;;;5.89;100.00;103661.69;10416269;28;20055;-56
2022/01/18 14:55:48;;;;;;;103.93;96.65;;;;;;;5.77;100.00;103657.28;10415992;28;20056;-57
2022/01/18 15:00:53;;;;;;;100.25;93.03;;;;;;;5.58;100.00;103655.34;10415793;28;20103;-54
2022/01/18 15:05:55;;;;;;;98.68;91.78;;;;;;;5.42;100.00;103643.09;10416154;28;20049;-56
2022/01/18 15:10:58;;;;;;;96.05;88.95;;;;;;;5.54;100.00;103636.25;10415514;28;20053;-56
2022/01/18 15:16:00;;;;;;;97.53;90.13;;;;;;;5.31;100.00;103628.28;10415362;28;20063;-57
2022/01/18 15:21:02;;;;;;;98.50;91.22;;;;;;;5.01;100.00;103627.09;10414502;28;20061;-58
2022/01/18 15:26:05;;;;;;;92.32;85.90;;;;;;;4.86;100.00;103626.03;10415103;28;20060;-56
2022/01/18 15:31:07;;;;;;;86.03;79.53;;;;;;;4.63;100.00;103626.63;10430357;28;20063;-56
2022/01/18 15:36:11;;;;;;;75.07;68.82;;;;;;;4.40;100.00;103621.97;10415023;28;20057;-55
2022/01/18 15:41:13;;;;;;;80.13;73.13;;;;;;;4.30;100.00;103627.03;10414978;28;20053;-56
2022/01/18 15:46:16;;;;;;;46.25;41.40;;;;;;;4.17;100.00;103626.88;10414874;28;20046;-51
2022/01/18 15:51:20;;;;;;;42.42;27.05;;;;;;;4.25;100.00;103617.47;10415121;28;20084;-57
2022/01/18 15:56:22;;;;;;;34.90;24.10;;;;;;;4.05;100.00;103614.59;10414681;28;20054;-58
2022/01/18 16:01:24;;;;;;;38.80;27.02;;;;;;;4.13;100.00;103619.88;10414620;28;20060;-55
2022/01/18 16:06:27;;;;;;;1999.90;999.90;;;;;;;4.36;100.00;103601.19;10414223;28;20080;-58
2022/01/18 16:11:30;;;;;;;1999.90;999.90;;;;;;;4.49;100.00;103597.00;10416169;28;20512;-57
2022/01/18 16:16:32;;;;;;;1999.90;999.90;;;;;;;4.31;100.00;103598.53;10414332;28;20096;-54
2022/01/18 16:21:36;;;;;;;1999.90;999.90;;;;;;;4.36;100.00;103594.28;10414126;28;20053;-56
2022/01/18 16:26:38;;;;;;;743.28;365.90;;;;;;;4.25;100.00;103595.84;10413906;28;20129;-57
2022/01/18 16:31:41;;;;;;;55.80;19.15;;;;;;;4.27;100.00;103587.25;10418003;28;20049;-56
2022/01/18 16:36:43;;;;;;;35.83;15.77;;;;;;;4.18;100.00;103579.31;10421027;28;20513;-58
2022/01/18 16:41:46;;;;;;;49.67;18.08;;;;;;;4.12;100.00;103580.94;10421308;28;20054;-55
2022/01/18 16:46:49;;;;;;;38.97;16.75;;;;;;;3.97;100.00;103594.56;10436935;28;20393;-58
2022/01/18 16:51:56;;;;;;;25.75;7.95;;;;;;;3.85;100.00;103590.94;10423874;28;20136;-53
2022/01/18 16:56:58;;;;;;;16.48;8.77;;;;;;;3.99;100.00;103587.69;10420463;28;20061;-57
2022/01/18 17:02:00;;;;;;;31.52;11.77;;;;;;;4.48;100.00;103578.00;10420066;28;20609;-58
2022/01/18 17:07:04;;;;;;;27.50;10.82;;;;;;;4.05;100.00;103595.56;10435454;28;20049;-52
2022/01/18 17:12:07;;;;;;;26.88;10.30;;;;;;;4.28;100.00;103594.16;10420132;28;20087;-56
2022/01/18 17:17:09;;;;;;;30.77;9.38;;;;;;;4.27;100.00;103591.56;10420080;28;20045;-57
2022/01/18 17:22:11;;;;;;;30.58;10.35;;;;;;;4.20;100.00;103589.72;10419155;28;20520;-56
2022/01/18 17:27:14;;;;;;;26.27;9.90;;;;;;;4.30;100.00;103588.97;10421237;28;20046;-58
2022/01/18 17:32:16;;;;;;;43.80;12.50;;;;;;;4.22;100.00;103593.19;10419498;28;20053;-53
2022/01/18 17:37:18;;;;;;;32.90;11.55;;;;;;;4.11;100.00;103589.59;10419005;28;20045;-54
2022/01/18 17:42:21;;;;;;;30.23;10.35;;;;;;;4.30;100.00;103596.78;10418173;28;20057;-58
2022/01/18 17:47:23;;;;;;;37.17;11.38;;;;;;;4.38;100.00;103589.97;10418435;28;20413;-53
2022/01/18 17:52:25;;;;;;;35.60;10.32;;;;;;;4.38;100.00;103592.56;10418212;28;20057;-55
2022/01/18 17:57:28;;;;;;;30.38;10.38;;;;;;;4.65;100.00;103585.97;10418017;28;20046;-53
2022/01/18 18:02:30;;;;;;;37.83;11.80;;;;;;;4.79;100.00;103574.06;10416724;28;20053;-55
2022/01/18 18:07:33;;;;;;;29.77;10.95;;;;;;;4.46;100.00;103569.31;10418757;28;20056;-54
2022/01/18 18:12:37;;;;;;;41.03;14.13;;;;;;;4.57;100.00;103561.66;10417466;28;20489;-55
2022/01/18 18:17:39;;;;;;;27.20;11.25;;;;;;;4.72;100.00;103566.16;10417302;28;20064;-56
2022/01/18 18:22:41;;;;;;;30.10;11.57;;;;;;;4.59;100.00;103568.63;10416907;28;20057;-53
2022/01/18 18:27:44;;;;;;;31.80;10.75;;;;;;;4.61;100.00;103551.34;10416936;28;20060;-55
2022/01/18 18:32:47;;;;;;;26.67;9.93;;;;;;;4.58;100.00;103542.66;10415893;28;20050;-57
2022/01/18 18:37:52;;;;;;;31.85;9.90;;;;;;;4.50;100.00;103519.19;10415907;28;20053;-56
2022/01/18 18:42:59;;;;;;;31.77;10.25;;;;;;;4.59;100.00;103500.25;10416593;28;20050;-57
2022/01/18 18:48:03;;;;;;;31.33;11.82;;;;;;;4.90;100.00;103516.19;10416931;28;20045;-53
2022/01/18 18:53:06;;;;;;;36.70;12.77;;;;;;;4.71;100.00;103533.25;10416256;28;20056;-54
2022/01/18 18:58:12;;;;;;;39.63;16.17;;;;;;;4.69;100.00;103538.47;10415557;28;20049;-55
2022/01/18 19:03:26;;;;;;;29.58;13.40;;;;;;;4.77;100.00;103539.38;10413986;28;20397;-53
2022/01/18 19:08:29;;;;;;;38.97;13.90;;;;;;;4.40;100.00;103544.16;10415638;28;20042;-53
2022/01/18 19:13:33;;;;;;;32.65;12.85;;;;;;;4.79;100.00;103542.00;10415476;28;20053;-55
2022/01/18 19:18:35;;;;;;;26.90;11.82;;;;;;;4.95;100.00;103545.66;10415423;28;20076;-52
2022/01/18 19:23:40;;;;;;;33.30;12.70;;;;;;;4.72;100.00;103561.84;10415599;28;20053;-53
2022/01/18 19:28:42;;;;;;;32.95;13.82;;;;;;;4.79;100.00;103558.47;10430724;28;20050;-57
2022/01/18 19:33:45;;;;;;;36.17;13.50;;;;;;;4.82;100.00;103560.22;10416854;28;20076;-55
2022/01/18 19:38:47;;;;;;;45.80;16.95;;;;;;;4.73;100.00;103561.00;10414855;28;20437;-54
2022/01/18 19:43:50;;;;;;;43.30;18.38;;;;;;;4.76;100.00;103562.75;10414918;28;20054;-56
2022/01/18 19:48:53;;;;;;;59.20;19.88;;;;;;;4.85;100.00;103565.44;10415153;28;20050;-56
2022/01/18 19:53:55;;;;;;;33.13;14.23;;;;;;;4.82;100.00;103568.00;10414755;28;20529;-55
2022/01/18 19:58:57;;;;;;;41.47;18.17;;;;;;;4.46;100.00;103571.91;10414931;28;20056;-56
2022/01/18 20:04:01;;;;;;;51.88;19.73;;;;;;;4.73;100.00;103557.53;10415185;28;20061;-54
2022/01/18 20:09:10;;;;;;;39.40;16.48;;;;;;;4.80;100.00;103547.22;10422712;28;20512;-58
2022/01/18 20:14:13;;;;;;;51.40;17.75;;;;;;;4.88;100.00;103534.34;10423067;28;20046;-57
2022/01/18 20:19:15;;;;;;;39.20;16.88;;;;;;;4.83;100.00;103526.50;10421968;28;20046;-56
2022/01/18 20:24:17;;;;;;;35.10;13.95;;;;;;;4.92;100.00;103512.72;10421001;28;20050;-52
2022/01/18 20:29:20;;;;;;;37.40;14.30;;;;;;;4.65;100.00;103514.19;10421600;28;20050;-55
2022/01/18 20:34:22;;;;;;;30.98;13.57;;;;;;;4.92;100.00;103504.94;10421621;28;20516;-55
2022/01/18 20:39:30;;;;;;;33.88;13.90;;;;;;;4.83;100.00;103503.13;10421356;28;20050;-56
2022/01/18 20:44:32;;;;;;;34.85;12.50;;;;;;;4.74;100.00;103502.16;10421296;28;20054;-53
2022/01/18 20:49:35;;;;;;;40.83;14.35;;;;;;;5.08;100.00;103492.97;10421752;28;20412;-57
2022/01/18 20:54:38;;;;;;;41.92;17.00;;;;;;;4.67;100.00;103484.78;10420473;28;20104;-55
2022/01/18 20:59:40;;;;;;;44.00;19.10;;;;;;;4.57;100.00;103483.81;10420118;28;20378;-58
2022/01/18 21:04:42;;;;;;;44.28;15.63;;;;;;;4.77;100.00;103474.50;10420408;28;20057;-58
2022/01/18 21:09:45;;;;;;;31.00;12.48;;;;;;;4.78;100.00;103452.03;10420516;28;20049;-57
2022/01/18 21:14:49;;;;;;;29.35;12.07;;;;;;;4.65;100.00;103457.09;10419672;28;20482;-55
2022/01/18 21:19:53;;;;;;;32.72;13.25;;;;;;;4.49;100.00;103447.44;10418414;28;20050;-56
2022/01/18 21:24:55;;;;;;;38.53;13.88;;;;;;;4.64;100.00;103455.38;10419535;28;20053;-56
2022/01/18 21:30:02;;;;;;;36.72;13.70;;;;;;;4.91;100.00;103447.81;10420471;28;20053;-56
2022/01/18 21:35:06;;;;;;;42.70;15.13;;;;;;;4.49;100.00;103443.94;10419014;28;20076;-58
2022/01/18 21:40:09;;;;;;;32.50;14.65;;;;;;;4.66;100.00;103434.63;10417848;28;20057;-54
2022/01/18 21:45:11;;;;;;;37.63;14.77;;;;;;;4.46;100.00;103418.84;10418657;28;20060;-53
2022/01/18 21:50:15;;;;;;;32.55;14.32;;;;;;;4.56;100.00;103420.69;10418474;28;20045;-51
2022/01/18 21:55:17;;;;;;;41.20;16.23;;;;;;;4.61;100.00;103405.16;10418163;28;20045;-56
2022/01/18 22:00:20;;;;;;;47.50;17.70;;;;;;;4.34;100.00;103396.25;10418202;28;20060;-56
2022/01/18 22:05:22;;;;;;;39.75;16.10;;;;;;;4.50;100.00;103381.69;10417716;28;20053;-57
2022/01/18 22:10:31;;;;;;;43.60;16.65;;;;;;;4.08;100.00;103367.44;10418782;28;20069;-56
2022/01/18 22:15:33;;;;;;;48.28;18.88;;;;;;;4.34;100.00;103364.22;10417592;28;20045;-53
2022/01/18 22:20:36;;;;;;;45.67;17.08;;;;;;;4.30;100.00;103360.75;10416157;28;20049;-59
2022/01/18 22:25:38;;;;;;;57.28;17.67;;;;;;;4.11;100.00;103356.25;10417341;28;20060;-56
2022/01/18 22:30:41;;;;;;;53.67;18.60;;;;;;;3.88;100.00;103347.38;10416537;28;20057;-57
2022/01/18 22:35:44;;;;;;;54.33;19.63;;;;;;;3.50;100.00;103326.16;10416672;28;20053;-57
2022/01/18 22:40:47;;;;;;;35.90;16.65;;;;;;;3.38;100.00;103313.03;10416667;28;20046;-56
2022/01/18 22:45:49;;;;;;;54.70;18.70;;;;;;;3.16;100.00;103299.81;10416833;28;20481;-59
2022/01/18 22:50:52;;;;;;;41.95;17.17;;;;;;;3.21;100.00;103292.09;10416182;28;20055;-54
2022/01/18 22:55:54;;;;;;;41.75;16.85;;;;;;;2.75;100.00;103294.91;10416860;28;20049;-57
2022/01/18 23:00:56;;;;;;;56.95;19.67;;;;;;;3.02;100.00;103298.75;10416284;28;20054;-58
2022/01/18 23:05:59;;;;;;;43.85;19.25;;;;;;;2.38;100.00;103295.19;10415497;28;20452;-57
2022/01/18 23:11:03;;;;;;;43.45;18.38;;;;;;;2.77;100.00;103301.88;10430786;28;20406;-55
2022/01/18 23:16:05;;;;;;;49.65;18.73;;;;;;;2.56;100.00;103288.59;10415407;28;20052;-53
2022/01/18 23:21:08;;;;;;;38.60;14.65;;;;;;;2.55;100.00;103289.41;10415423;28;20124;-56
2022/01/18 23:26:10;;;;;;;48.42;16.38;;;;;;;2.27;100.00;103273.47;10415832;28;20057;-57
2022/01/18 23:31:14;;;;;;;42.78;17.42;;;;;;;2.26;100.00;103271.72;10416260;28;20053;-54
2022/01/18 23:36:26;;;;;;;39.35;15.75;;;;;;;2.43;100.00;103269.41;10415335;28;20049;-57
2022/01/18 23:41:35;;;;;;;50.28;18.52;;;;;;;2.07;100.00;103256.72;10418787;28;20405;-54
2022/01/18 23:46:38;;;;;;;79.55;22.67;;;;;;;1.94;100.00;103247.91;10423126;28;20401;-55
2022/01/18 23:51:41;;;;;;;45.70;19.05;;;;;;;1.93;100.00;103239.25;10423260;28;20081;-54
2022/01/18 23:56:43;;;;;;;46.45;18.27;;;;;;;1.97;100.00;103228.16;10422675;28;20057;-57
